Siauliai, Lithuania
Current Conditions -  °F | °C
As of 6:50 PM on Friday 24 Oct 2014 (Local Time) from EYSA Reporting Station
Clear Clear  
Wind Chill: 16°   Ceiling: Unl
Heat Index: 27°   Visibility: 6mi
Dew Point: 16°   Wind: 12mph
Humidity: 64%   Direction: 130°SE
Pressure: 30.48"   Gusts: NA
Location:  55.93°N, 23.32°E
Report Text: EYSA 241550Z 13010KT CAVOK M03/M09 Q1032
Loading
Personal Weather Stations






























Interactive Weather Map
Tropical Storm Tracking
New forecast layout! Learn more

10-Day Weather Forecast

Advertisements
Track Severe Weather on mobile